createdAt,value
2018-12-06T00:00:53.408Z,1023.7
2018-12-06T00:05:53.366Z,1023.8
2018-12-06T00:10:53.397Z,1023.7
2018-12-06T00:15:53.629Z,1023.7
2018-12-06T00:20:53.561Z,1023.5
2018-12-06T00:25:53.584Z,1023.5
2018-12-06T00:30:53.508Z,1023.6
2018-12-06T00:35:53.543Z,1023.6
2018-12-06T00:40:53.408Z,1023.5
2018-12-06T00:45:53.625Z,1023.4
2018-12-06T00:50:53.545Z,1023.4
2018-12-06T00:55:53.597Z,1023.5
2018-12-06T01:00:53.425Z,1023.6
2018-12-06T01:05:53.646Z,1023.6
2018-12-06T01:10:53.575Z,1023.5
2018-12-06T01:15:53.661Z,1023.4
2018-12-06T01:20:53.412Z,1023.3
2018-12-06T01:25:53.588Z,1023.4
2018-12-06T01:30:53.424Z,1023.3
2018-12-06T01:35:53.652Z,1023.3
2018-12-06T01:40:53.574Z,1023.2
2018-12-06T01:45:53.640Z,1023.2
2018-12-06T01:50:53.441Z,1023.3
2018-12-06T01:55:53.580Z,1023.4
2018-12-06T02:00:53.548Z,1023.5
2018-12-06T02:05:53.665Z,1023.4
2018-12-06T02:10:53.499Z,1023.1
2018-12-06T02:15:53.622Z,1023.4
2018-12-06T02:20:53.655Z,1023.4
2018-12-06T02:25:53.540Z,1023.2
2018-12-06T02:30:53.445Z,1023.3
2018-12-06T02:35:53.656Z,1023.4
2018-12-06T02:40:53.575Z,1023.3
2018-12-06T02:45:53.607Z,1023.3
2018-12-06T02:50:53.624Z,1023.1
2018-12-06T02:55:53.474Z,1022.8
2018-12-06T03:00:53.625Z,1023
2018-12-06T03:05:53.650Z,1023.1
2018-12-06T03:10:53.648Z,1023.3
2018-12-06T03:15:53.737Z,1023.1
2018-12-06T03:20:53.647Z,1022.4
2018-12-06T03:25:53.702Z,1022.4
2018-12-06T03:30:53.619Z,1022.8
2018-12-06T03:35:53.656Z,1021.9
2018-12-06T03:40:53.696Z,1022.1
2018-12-06T03:45:53.774Z,1022.6
2018-12-06T03:50:53.511Z,1022.7
2018-12-06T03:55:53.705Z,1022.7
2018-12-06T04:00:53.612Z,1023.1
2018-12-06T04:05:53.787Z,1023.3
2018-12-06T04:10:53.718Z,1023.1
2018-12-06T04:15:53.752Z,1023.4
2018-12-06T04:20:53.604Z,1023.5
2018-12-06T04:25:53.697Z,1023.5
2018-12-06T04:30:53.728Z,1023.4
2018-12-06T04:35:53.751Z,1023.4
2018-12-06T04:40:53.532Z,1023.4
2018-12-06T04:45:53.512Z,1023.3
2018-12-06T04:50:53.784Z,1023.3
2018-12-06T04:55:53.530Z,1023.3
2018-12-06T05:00:53.747Z,1023.3
2018-12-06T05:05:53.781Z,1023.2
2018-12-06T05:10:53.676Z,1023.2
2018-12-06T05:15:53.719Z,1023.1
2018-12-06T05:20:53.756Z,1023.2
2018-12-06T05:25:53.681Z,1023.2
2018-12-06T05:30:56.146Z,1023.3
2018-12-06T05:35:56.196Z,1023.3
2018-12-06T05:40:56.191Z,1023.3
2018-12-06T05:45:56.193Z,1023.3
2018-12-06T05:50:56.195Z,1023.4
2018-12-06T05:55:56.222Z,1023.4
2018-12-06T06:00:56.254Z,1023.3
2018-12-06T06:05:56.231Z,1023.3
2018-12-06T06:10:56.250Z,1023.3
2018-12-06T06:15:56.424Z,1023.3
2018-12-06T06:20:56.243Z,1023.2
2018-12-06T06:25:56.235Z,1023.3
2018-12-06T06:30:56.287Z,1023.4
2018-12-06T06:35:56.335Z,1023.4
2018-12-06T06:40:56.262Z,1023.5
2018-12-06T06:45:56.280Z,1023.4
2018-12-06T06:50:56.295Z,1023.5
2018-12-06T06:55:56.309Z,1023.5
2018-12-06T07:00:56.323Z,1023.6
2018-12-06T07:05:56.300Z,1023.6
2018-12-06T07:10:56.319Z,1023.6
2018-12-06T07:15:56.304Z,1023.6
2018-12-06T07:20:56.323Z,1023.7
2018-12-06T07:25:56.351Z,1023.7
2018-12-06T07:30:56.281Z,1023.7
2018-12-06T07:35:56.388Z,1023.7
2018-12-06T07:40:56.386Z,1023.7
2018-12-06T07:45:56.397Z,1023.7
2018-12-06T07:50:56.436Z,1023.6
2018-12-06T07:55:56.430Z,1023.8
2018-12-06T08:00:56.445Z,1023.6
2018-12-06T08:05:56.592Z,1023.7
2018-12-06T08:10:56.476Z,1023.7
2018-12-06T08:15:56.410Z,1023.8
2018-12-06T08:20:56.445Z,1023.8
2018-12-06T08:25:56.477Z,1023.8
2018-12-06T08:30:56.473Z,1023.9
2018-12-06T08:35:56.470Z,1023.9
2018-12-06T08:40:56.483Z,1023.9
2018-12-06T08:45:56.461Z,1023.9
2018-12-06T08:50:56.493Z,1023.9
2018-12-06T08:55:56.523Z,1024
2018-12-06T09:00:56.521Z,1024
2018-12-06T09:05:56.509Z,1024
2018-12-06T09:10:56.517Z,1024.1
2018-12-06T09:15:56.569Z,1024.1
2018-12-06T09:20:56.552Z,1024
2018-12-06T09:25:56.505Z,1024.2
2018-12-06T09:31:01.551Z,1024.1
2018-12-06T09:35:56.562Z,1024
2018-12-06T09:40:56.527Z,1024
2018-12-06T09:45:56.577Z,1024.1
2018-12-06T09:50:56.888Z,1024.1
2018-12-06T09:55:56.569Z,1024.1
2018-12-06T10:00:56.597Z,1024
2018-12-06T10:05:56.573Z,1023.9
2018-12-06T10:10:56.677Z,1023.9
2018-12-06T10:15:56.683Z,1023.8
2018-12-06T10:20:56.818Z,1023.8
2018-12-06T10:25:56.695Z,1023.8
2018-12-06T10:30:56.676Z,1023.8
2018-12-06T10:36:00.428Z,1023.8
2018-12-06T10:40:59.270Z,1023.7
2018-12-06T10:45:59.253Z,1023.8
2018-12-06T10:50:59.242Z,1023.9
2018-12-06T10:55:59.258Z,1024.1
2018-12-06T11:01:00.088Z,1024.1
2018-12-06T11:06:00.128Z,1024.1
2018-12-06T11:11:00.102Z,1024.1
2018-12-06T11:16:00.110Z,1024.1
2018-12-06T11:21:00.114Z,1024.3
2018-12-06T11:26:00.110Z,1024.2
2018-12-06T11:31:00.124Z,1024.3
2018-12-06T11:36:00.124Z,1024.3
2018-12-06T11:41:00.121Z,1024.3
2018-12-06T11:46:00.133Z,1024.3
2018-12-06T11:51:00.106Z,1024.4
2018-12-06T11:56:00.143Z,1024.4
2018-12-06T12:01:00.137Z,1024.5
2018-12-06T12:06:00.183Z,1024.3
2018-12-06T12:11:00.211Z,1024.3
2018-12-06T12:16:00.186Z,1024.5
2018-12-06T12:21:00.184Z,1024.5
2018-12-06T12:26:00.229Z,1024.4
2018-12-06T12:31:00.195Z,1024.4
2018-12-06T12:36:00.225Z,1024.3
2018-12-06T12:41:01.658Z,1024.4
2018-12-06T12:46:00.216Z,1024.3
2018-12-06T12:51:00.189Z,1024.3
2018-12-06T12:56:00.271Z,1024.2
2018-12-06T13:01:00.223Z,1024
2018-12-06T13:06:00.240Z,1024.1
2018-12-06T13:11:00.219Z,1024.1
2018-12-06T13:16:00.202Z,1024.1
2018-12-06T13:21:00.232Z,1024.1
2018-12-06T13:26:00.252Z,1024
2018-12-06T13:31:00.247Z,1024
2018-12-06T13:36:00.254Z,1023.9
2018-12-06T13:41:00.243Z,1023.9
2018-12-06T13:46:00.366Z,1023.9
2018-12-06T13:51:00.335Z,1023.8
2018-12-06T13:56:00.296Z,1023.8
2018-12-06T14:01:01.622Z,1023.8
2018-12-06T14:06:00.460Z,1023.7
2018-12-06T14:11:00.447Z,1023.7
2018-12-06T14:16:00.435Z,1023.7
2018-12-06T14:21:00.456Z,1023.8
2018-12-06T14:26:00.628Z,1023.8
2018-12-06T14:31:00.604Z,1023.7
2018-12-06T14:36:00.709Z,1023.6
2018-12-06T14:41:00.546Z,1023.6
2018-12-06T14:46:00.582Z,1023.8
2018-12-06T14:51:00.589Z,1024
2018-12-06T14:56:00.564Z,1024
2018-12-06T15:01:00.598Z,1024
2018-12-06T15:06:00.601Z,1024.2
2018-12-06T15:11:00.635Z,1024.3
2018-12-06T15:16:00.608Z,1024.3
2018-12-06T15:21:00.599Z,1024.4
2018-12-06T15:26:00.588Z,1024.6
2018-12-06T15:31:00.723Z,1024.6
2018-12-06T15:36:00.588Z,1024.7
2018-12-06T15:41:00.614Z,1024.6
2018-12-06T15:46:00.654Z,1024.6
2018-12-06T15:51:00.630Z,1024.7
2018-12-06T15:56:00.666Z,1024.8
2018-12-06T16:01:00.612Z,1024.9
2018-12-06T16:06:04.829Z,1024.9
2018-12-06T16:11:05.190Z,1025
2018-12-06T16:16:04.845Z,1024.9
2018-12-06T16:21:04.866Z,1024.9
2018-12-06T16:26:04.894Z,1025
2018-12-06T16:31:04.927Z,1025.1
2018-12-06T16:36:04.870Z,1025.1
2018-12-06T16:41:04.843Z,1025.1
2018-12-06T16:46:04.899Z,1025
2018-12-06T16:51:05.023Z,1024.9
2018-12-06T16:56:04.844Z,1025
2018-12-06T17:01:04.871Z,1024.9
2018-12-06T17:06:04.863Z,1024.9
2018-12-06T17:11:04.866Z,1024.9
2018-12-06T17:16:04.828Z,1024.9
2018-12-06T17:21:04.899Z,1025
2018-12-06T17:26:04.891Z,1024.9
2018-12-06T17:31:04.908Z,1024.8
2018-12-06T17:36:04.889Z,1024.7
2018-12-06T17:41:04.870Z,1024.7
2018-12-06T17:46:06.041Z,1024.8
2018-12-06T17:51:04.995Z,1024.8
2018-12-06T17:56:05.014Z,1024.6
2018-12-06T18:01:04.913Z,1024.7
2018-12-06T18:06:04.910Z,1024.6
2018-12-06T18:11:04.915Z,1024.6
2018-12-06T18:16:04.905Z,1024.6
2018-12-06T18:21:05.015Z,1024.6
2018-12-06T18:26:04.915Z,1024.7
2018-12-06T18:31:04.906Z,1024.5
2018-12-06T18:36:04.939Z,1024.6
2018-12-06T18:41:04.947Z,1024.7
2018-12-06T18:46:04.936Z,1024.7
2018-12-06T18:51:05.191Z,1024.6
2018-12-06T18:56:04.974Z,1024.8
2018-12-06T19:01:05.266Z,1024.7
2018-12-06T19:06:04.999Z,1024.8
2018-12-06T19:11:04.924Z,1024.8
2018-12-06T19:16:04.975Z,1024.8
2018-12-06T19:21:05.011Z,1024.8
2018-12-06T19:26:06.042Z,1024.9
2018-12-06T19:31:04.994Z,1024.9
2018-12-06T19:36:05.050Z,1024.8
2018-12-06T19:41:05.076Z,1024.8
2018-12-06T19:46:05.141Z,1024.8
2018-12-06T19:51:06.667Z,1024.8
2018-12-06T19:56:07.747Z,1024.8
2018-12-06T20:01:05.139Z,1024.7
2018-12-06T20:06:05.002Z,1024.8
2018-12-06T20:11:05.163Z,1024.8
2018-12-06T20:16:08.624Z,1024.7
2018-12-06T20:21:05.029Z,1024.7
2018-12-06T20:26:05.189Z,1024.8
2018-12-06T20:31:05.031Z,1024.7
2018-12-06T20:36:05.219Z,1024.6
2018-12-06T20:41:05.091Z,1024.6
2018-12-06T20:46:05.048Z,1024.5
2018-12-06T20:51:05.009Z,1024.6
2018-12-06T20:56:04.981Z,1024.6
2018-12-06T21:01:05.105Z,1024.6
2018-12-06T21:06:05.953Z,1024.5
2018-12-06T21:11:06.444Z,1024.6
2018-12-06T21:16:05.330Z,1024.5
2018-12-06T21:21:05.961Z,1024.5
2018-12-06T21:26:04.995Z,1024.5
2018-12-06T21:31:05.014Z,1024.5
2018-12-06T21:36:05.081Z,1024.5
2018-12-06T21:41:05.756Z,1024.3
2018-12-06T21:46:05.476Z,1024.3
2018-12-06T21:51:05.024Z,1024.2
2018-12-06T21:56:05.074Z,1024.3
2018-12-06T22:01:05.050Z,1024.3
2018-12-06T22:06:05.791Z,1024.3
2018-12-06T22:11:05.041Z,1024.3
2018-12-06T22:16:05.023Z,1024
2018-12-06T22:21:05.044Z,1024.2
2018-12-06T22:26:05.045Z,1024.2
2018-12-06T22:31:05.036Z,1024
2018-12-06T22:36:05.044Z,1024.1
2018-12-06T22:41:05.088Z,1024
2018-12-06T22:46:05.093Z,1023.8
2018-12-06T22:51:05.067Z,1023.9
2018-12-06T22:56:05.034Z,1023.9
2018-12-06T23:01:05.034Z,1023.8
2018-12-06T23:06:05.061Z,1023.8
2018-12-06T23:11:05.055Z,1023.7
2018-12-06T23:16:05.065Z,1023.7
2018-12-06T23:21:05.059Z,1023.8
2018-12-06T23:26:05.057Z,1023.7
2018-12-06T23:31:05.052Z,1023.8
2018-12-06T23:36:05.261Z,1023.8
2018-12-06T23:41:05.081Z,1023.8
2018-12-06T23:46:05.072Z,1023.8
2018-12-06T23:51:05.095Z,1023.7
2018-12-06T23:56:05.068Z,1023.6
